Time;durP1;ratioP1;P1;durP2;ratioP2;P2;SDS_P1;SDS_P2;PMS_P1;PMS_P2;Temp;Humidity;BMP_temperature;BMP_pressure;BME280_temperature;BME280_humidity;BME280_pressure;Samples;Min_cycle;Max_cycle;Signal;HPM_P1;HPM_P2
2022/10/11 00:00:13;;;;;;;12.23;11.35;;;;;;;;;;5051092;28;20100;-63
2022/10/11 00:02:38;;;;;;;10.75;10.05;;;;;;;;;;5020449;28;20652;-63
2022/10/11 00:05:04;;;;;;;11.52;10.82;;;;;;;;;;5027617;28;20116;-63
2022/10/11 00:07:30;;;;;;;11.82;11.02;;;;;;;;;;5019485;28;20041;-64
2022/10/11 00:09:55;;;;;;;11.77;10.88;;;;;;;;;;5023719;28;20050;-64
2022/10/11 00:12:20;;;;;;;10.27;9.65;;;;;;;;;;5022970;28;20124;-64
2022/10/11 00:14:46;;;;;;;11.13;10.35;;;;;;;;;;5052586;28;20096;-64
2022/10/11 00:17:11;;;;;;;10.40;9.73;;;;;;;;;;5018388;28;20451;-64
2022/10/11 00:19:37;;;;;;;10.88;10.18;;;;;;;;;;5021157;28;20022;-63
2022/10/11 00:22:02;;;;;;;11.65;10.95;;;;;;;;;;5017817;28;20375;-63
2022/10/11 00:24:27;;;;;;;11.23;10.52;;;;;;;;;;5018406;28;20360;-63
2022/10/11 00:26:53;;;;;;;12.23;11.32;;;;;;;;;;5016666;28;20238;-63
2022/10/11 00:29:18;;;;;;;11.80;11.00;;;;;;;;;;5016840;28;20034;-63
2022/10/11 00:31:43;;;;;;;11.88;11.15;;;;;;;;;;5019322;28;20030;-63
2022/10/11 00:34:10;;;;;;;12.10;11.30;;;;;;;;;;5018510;28;20029;-63
2022/10/11 00:36:36;;;;;;;10.80;10.05;;;;;;;;;;5016047;28;20065;-63
2022/10/11 00:39:02;;;;;;;11.43;10.65;;;;;;;;;;5018662;28;20494;-63
2022/10/11 00:41:27;;;;;;;10.95;10.25;;;;;;;;;;5017399;28;20092;-62
2022/10/11 00:44:17;;;;;;;11.15;10.23;;;;;;;;;;5018135;28;20116;-62
2022/10/11 00:46:55;;;;;;;9.65;9.05;;;;;;;;;;5020758;28;20025;-62
2022/10/11 00:49:29;;;;;;;10.50;9.70;;;;;;;;;;5051119;28;20057;-63
2022/10/11 00:52:00;;;;;;;11.18;10.40;;;;;;;;;;5016182;28;20043;-63
2022/10/11 00:54:29;;;;;;;10.13;9.43;;;;;;;;;;5019156;28;20108;-63
2022/10/11 00:57:17;;;;;;;11.75;10.93;;;;;;;;;;5018122;28;20073;-63
2022/10/11 00:59:49;;;;;;;10.65;9.98;;;;;;;;;;5015929;28;20092;-63
2022/10/11 01:02:15;;;;;;;10.82;10.13;;;;;;;;;;5014403;28;20510;-63
2022/10/11 01:04:41;;;;;;;9.85;9.25;;;;;;;;;;5017367;28;20522;-64
2022/10/11 01:07:08;;;;;;;9.55;8.95;;;;;;;;;;5015734;28;20034;-63
2022/10/11 01:09:33;;;;;;;9.75;9.15;;;;;;;;;;5017116;28;20677;-63
2022/10/11 01:12:02;;;;;;;10.25;9.55;;;;;;;;;;5018734;28;20041;-64
2022/10/11 01:14:46;;;;;;;12.07;10.93;;;;;;;;;;5018094;28;20040;-64
2022/10/11 01:17:30;;;;;;;11.10;10.20;;;;;;;;;;5016822;28;20041;-63
2022/10/11 01:20:14;;;;;;;9.93;9.32;;;;;;;;;;5017110;28;20037;-63
2022/10/11 01:23:01;;;;;;;10.38;9.57;;;;;;;;;;5015659;28;20352;-63
2022/10/11 01:25:32;;;;;;;11.07;10.25;;;;;;;;;;5018491;28;20053;-63
2022/10/11 01:28:00;;;;;;;10.05;9.38;;;;;;;;;;5018108;28;20044;-63
2022/10/11 01:30:31;;;;;;;9.63;8.93;;;;;;;;;;5017526;28;20045;-63
2022/10/11 01:33:17;;;;;;;19.33;8.75;;;;;;;;;;5047677;28;20033;-63
2022/10/11 01:36:08;;;;;;;8.82;8.23;;;;;;;;;;5017191;28;20033;-63
2022/10/11 01:38:40;;;;;;;9.70;9.00;;;;;;;;;;4999252;28;20049;-63
2022/10/11 01:41:20;;;;;;;8.80;8.20;;;;;;;;;;5017454;28;20105;-63
2022/10/11 01:43:47;;;;;;;8.43;7.82;;;;;;;;;;5016018;28;20030;-63
2022/10/11 01:46:13;;;;;;;8.88;8.27;;;;;;;;;;5015610;28;20064;-62
2022/10/11 01:48:54;;;;;;;9.10;8.43;;;;;;;;;;5016354;28;20371;-62
2022/10/11 01:51:27;;;;;;;9.52;8.93;;;;;;;;;;5017644;28;20038;-63
2022/10/11 01:54:29;;;;;;;10.57;9.80;;;;;;;;;;5015066;28;20030;-62
2022/10/11 01:56:58;;;;;;;9.43;8.82;;;;;;;;;;5015570;28;20071;-62
2022/10/11 01:59:47;;;;;;;9.50;8.80;;;;;;;;;;5017999;28;20398;-62
2022/10/11 02:02:18;;;;;;;9.23;8.52;;;;;;;;;;5015698;28;20045;-62
2022/10/11 02:04:49;;;;;;;;;;;;;;;;;;5018368;28;20029;-62
2022/10/11 02:07:20;;;;;;;10.15;9.27;;;;;;;;;;5019120;28;19909;-62
2022/10/11 02:09:55;;;;;;;8.52;7.93;;;;;;;;;;5017493;28;20044;-62
2022/10/11 02:12:31;;;;;;;9.25;8.55;;;;;;;;;;5013528;28;20064;-61
2022/10/11 02:14:57;;;;;;;7.78;7.22;;;;;;;;;;5014254;28;20030;-61
2022/10/11 02:17:29;;;;;;;9.05;8.35;;;;;;;;;;5017247;28;20103;-61
2022/10/11 02:19:58;;;;;;;7.57;7.05;;;;;;;;;;5017907;28;20022;-61
2022/10/11 02:22:31;;;;;;;7.75;7.25;;;;;;;;;;5014045;28;20034;-62
2022/10/11 02:25:00;;;;;;;7.35;6.85;;;;;;;;;;5018663;28;20057;-62
2022/10/11 02:27:29;;;;;;;7.68;7.18;;;;;;;;;;5052331;28;20053;-62
2022/10/11 02:29:58;;;;;;;7.00;6.50;;;;;;;;;;5015056;28;20038;-62
2022/10/11 02:32:25;;;;;;;8.25;7.65;;;;;;;;;;5016262;28;20663;-62
2022/10/11 02:34:55;;;;;;;7.85;7.25;;;;;;;;;;5014081;28;20038;-62
2022/10/11 02:37:31;;;;;;;7.75;7.25;;;;;;;;;;5017990;28;20029;-62
2022/10/11 02:40:05;;;;;;;8.30;7.55;;;;;;;;;;5015434;28;20096;-62
2022/10/11 02:42:36;;;;;;;7.82;7.32;;;;;;;;;;5015828;28;20518;-62
2022/10/11 02:45:18;;;;;;;8.00;7.25;;;;;;;;;;5018158;28;20030;-62
2022/10/11 02:47:44;;;;;;;7.40;6.90;;;;;;;;;;5016441;28;20029;-62
2022/10/11 02:50:11;;;;;;;8.32;7.72;;;;;;;;;;5014980;28;20181;-62
2022/10/11 02:52:37;;;;;;;7.70;7.20;;;;;;;;;;5015122;28;20037;-62
2022/10/11 02:55:03;;;;;;;8.95;8.35;;;;;;;;;;5014811;28;20450;-63
2022/10/11 02:57:28;;;;;;;7.40;6.90;;;;;;;;;;5016901;28;20037;-63
2022/10/11 02:59:53;;;;;;;8.55;8.05;;;;;;;;;;5016966;28;20021;-62
2022/10/11 03:02:19;;;;;;;8.15;7.65;;;;;;;;;;5013040;28;20044;-63
2022/10/11 03:04:44;;;;;;;8.38;7.88;;;;;;;;;;5016833;28;20026;-63
2022/10/11 03:07:10;;;;;;;8.63;8.10;;;;;;;;;;5014666;28;20026;-63
2022/10/11 03:09:35;;;;;;;7.78;7.22;;;;;;;;;;5018405;28;20500;-63
2022/10/11 03:12:01;;;;;;;8.82;8.23;;;;;;;;;;5016288;28;20068;-63
2022/10/11 03:14:26;;;;;;;9.15;8.55;;;;;;;;;;5016555;28;20033;-63
2022/10/11 03:16:51;;;;;;;7.93;7.43;;;;;;;;;;5013673;28;20060;-63
2022/10/11 03:19:17;;;;;;;8.07;7.57;;;;;;;;;;5018355;28;20121;-63
2022/10/11 03:21:42;;;;;;;6.65;6.18;;;;;;;;;;5012434;28;20026;-63
2022/10/11 03:24:07;;;;;;;7.75;7.07;;;;;;;;;;5020215;28;21020;-63
2022/10/11 03:26:33;;;;;;;7.80;7.30;;;;;;;;;;5017464;28;20029;-62
2022/10/11 03:28:58;;;;;;;10.13;9.43;;;;;;;;;;5017439;28;20034;-62
2022/10/11 03:31:23;;;;;;;8.60;8.00;;;;;;;;;;5020830;28;20426;-62
2022/10/11 03:33:49;;;;;;;7.72;7.22;;;;;;;;;;5020452;28;20049;-63
2022/10/11 03:36:15;;;;;;;7.68;7.18;;;;;;;;;;5019784;28;20065;-63
2022/10/11 03:38:41;;;;;;;9.88;9.20;;;;;;;;;;5017504;28;20035;-62
2022/10/11 03:41:06;;;;;;;8.05;7.55;;;;;;;;;;5019158;28;20617;-62
2022/10/11 03:43:31;;;;;;;7.85;7.35;;;;;;;;;;5019391;28;20419;-62
2022/10/11 03:45:57;;;;;;;8.95;8.27;;;;;;;;;;5018936;28;20030;-62
2022/10/11 03:48:22;;;;;;;8.23;7.72;;;;;;;;;;5020616;28;20030;-62
2022/10/11 03:50:48;;;;;;;9.52;8.93;;;;;;;;;;5019828;28;20128;-62
2022/10/11 03:53:13;;;;;;;9.55;8.85;;;;;;;;;;5019369;28;20061;-62
2022/10/11 03:55:40;;;;;;;7.43;6.93;;;;;;;;;;5021359;28;20092;-62
2022/10/11 03:58:06;;;;;;;7.25;6.75;;;;;;;;;;5017898;28;20033;-62
2022/10/11 04:00:32;;;;;;;8.45;7.85;;;;;;;;;;5020421;28;20021;-62
2022/10/11 04:02:58;;;;;;;7.25;6.75;;;;;;;;;;5021269;28;20054;-63
2022/10/11 04:05:24;;;;;;;7.50;7.00;;;;;;;;;;5019298;28;20111;-63
2022/10/11 04:07:49;;;;;;;7.60;7.10;;;;;;;;;;5020170;28;20037;-63
2022/10/11 04:10:15;;;;;;;7.20;6.70;;;;;;;;;;5020245;28;20599;-63
2022/10/11 04:12:40;;;;;;;7.65;7.00;;;;;;;;;;5018611;28;20038;-63
2022/10/11 04:15:06;;;;;;;7.85;7.25;;;;;;;;;;5017564;28;20064;-63
2022/10/11 04:17:31;;;;;;;8.23;7.63;;;;;;;;;;5017318;28;20037;-64
2022/10/11 04:19:56;;;;;;;9.90;8.02;;;;;;;;;;5019609;28;20025;-62
2022/10/11 04:22:22;;;;;;;8.73;6.45;;;;;;;;;;5018994;28;20040;-63
2022/10/11 04:24:47;;;;;;;7.15;6.65;;;;;;;;;;5020692;28;20030;-63
2022/10/11 04:27:13;;;;;;;6.63;6.13;;;;;;;;;;5050879;28;20418;-62
2022/10/11 04:29:38;;;;;;;6.85;6.35;;;;;;;;;;5015982;28;20152;-62
2022/10/11 04:32:03;;;;;;;7.00;6.50;;;;;;;;;;5021872;28;20041;-62
2022/10/11 04:34:29;;;;;;;6.97;6.47;;;;;;;;;;5018936;28;20037;-62
2022/10/11 04:36:54;;;;;;;7.30;6.80;;;;;;;;;;5017593;28;20732;-63
2022/10/11 04:39:19;;;;;;;8.90;8.02;;;;;;;;;;5016456;28;20030;-62
2022/10/11 04:41:45;;;;;;;6.93;6.43;;;;;;;;;;5016481;28;20030;-62
2022/10/11 04:44:10;;;;;;;10.10;6.78;;;;;;;;;;5019965;28;20029;-62
2022/10/11 04:46:35;;;;;;;7.18;6.68;;;;;;;;;;5016652;28;20439;-62
2022/10/11 04:49:01;;;;;;;6.65;6.15;;;;;;;;;;5016638;28;20029;-63
2022/10/11 04:51:27;;;;;;;6.78;6.28;;;;;;;;;;5023751;28;20038;-62
2022/10/11 04:53:53;;;;;;;6.80;6.30;;;;;;;;;;5018864;28;20033;-62
2022/10/11 04:56:18;;;;;;;8.77;6.88;;;;;;;;;;5050805;28;20650;-62
2022/10/11 04:58:46;;;;;;;7.00;6.40;;;;;;;;;;5018814;28;20033;-63
2022/10/11 05:01:12;;;;;;;7.13;6.63;;;;;;;;;;5017738;28;20500;-62
2022/10/11 05:03:37;;;;;;;7.40;6.90;;;;;;;;;;5019184;28;20030;-63
2022/10/11 05:06:03;;;;;;;7.32;6.82;;;;;;;;;;5021413;28;20029;-62
2022/10/11 05:08:29;;;;;;;9.40;7.55;;;;;;;;;;5017762;28;20120;-61
2022/10/11 05:11:02;;;;;;;6.78;6.28;;;;;;;;;;5023064;28;20171;-62
2022/10/11 05:13:29;;;;;;;6.88;6.38;;;;;;;;;;5017867;28;20061;-62
2022/10/11 05:15:55;;;;;;;6.90;6.40;;;;;;;;;;5046587;28;20076;-62
2022/10/11 05:18:21;;;;;;;7.10;6.60;;;;;;;;;;5016552;28;20045;-62
2022/10/11 05:20:46;;;;;;;6.18;5.78;;;;;;;;;;5015441;28;20100;-63
2022/10/11 05:23:12;;;;;;;6.72;6.22;;;;;;;;;;5017937;28;20041;-62
2022/10/11 05:25:37;;;;;;;6.85;6.35;;;;;;;;;;5018522;28;20029;-61
2022/10/11 05:28:03;;;;;;;7.03;6.53;;;;;;;;;;5017152;28;20038;-62
2022/10/11 05:30:29;;;;;;;7.05;6.55;;;;;;;;;;5017016;28;20103;-64
2022/10/11 05:32:54;;;;;;;8.43;7.78;;;;;;;;;;5019901;28;20607;-64
2022/10/11 05:35:19;;;;;;;6.95;6.45;;;;;;;;;;5016960;28;20467;-63
2022/10/11 05:37:45;;;;;;;7.68;7.18;;;;;;;;;;5022139;28;20029;-63
2022/10/11 05:40:10;;;;;;;6.20;5.80;;;;;;;;;;5018871;28;20030;-63
2022/10/11 05:42:36;;;;;;;7.28;6.78;;;;;;;;;;5018938;28;20029;-63
2022/10/11 05:45:05;;;;;;;7.15;6.65;;;;;;;;;;5017101;28;20105;-63
2022/10/11 05:47:32;;;;;;;8.52;7.95;;;;;;;;;;5014926;28;20410;-63
2022/10/11 05:49:57;;;;;;;6.38;5.97;;;;;;;;;;5018342;28;20087;-63
2022/10/11 05:52:23;;;;;;;6.25;5.85;;;;;;;;;;5016512;28;20490;-62
2022/10/11 05:54:48;;;;;;;7.85;7.25;;;;;;;;;;5016231;28;20685;-63
2022/10/11 05:57:13;;;;;;;8.13;7.43;;;;;;;;;;5017578;28;20037;-64
2022/10/11 05:59:39;;;;;;;7.68;7.18;;;;;;;;;;5015989;28;20107;-64
2022/10/11 06:02:05;;;;;;;9.25;8.45;;;;;;;;;;5015289;28;20042;-65
2022/10/11 06:04:30;;;;;;;7.28;6.78;;;;;;;;;;5014356;28;20037;-65
2022/10/11 06:06:55;;;;;;;8.38;7.78;;;;;;;;;;5016277;28;20025;-63
2022/10/11 06:09:21;;;;;;;7.80;7.22;;;;;;;;;;5016679;28;20034;-64
2022/10/11 06:11:46;;;;;;;7.78;7.28;;;;;;;;;;5014543;28;20033;-62
2022/10/11 06:14:12;;;;;;;7.90;7.35;;;;;;;;;;5015712;28;20041;-62
2022/10/11 06:16:37;;;;;;;8.02;7.45;;;;;;;;;;5015991;28;20041;-62
2022/10/11 06:19:03;;;;;;;7.43;6.90;;;;;;;;;;5015689;28;20092;-62
2022/10/11 06:21:29;;;;;;;7.75;7.25;;;;;;;;;;5011105;28;20298;-62
2022/10/11 06:23:54;;;;;;;7.00;6.47;;;;;;;;;;5016398;28;20040;-62
2022/10/11 06:26:20;;;;;;;6.82;6.32;;;;;;;;;;5016686;28;20459;-63
2022/10/11 06:28:45;;;;;;;11.80;7.35;;;;;;;;;;5017707;28;20092;-63
2022/10/11 06:31:11;;;;;;;8.27;7.68;;;;;;;;;;5017142;28;20042;-63
2022/10/11 06:33:37;;;;;;;6.40;6.00;;;;;;;;;;5018599;28;20088;-61
2022/10/11 06:36:06;;;;;;;6.78;6.28;;;;;;;;;;5015980;28;20172;-62
2022/10/11 06:38:31;;;;;;;6.20;5.80;;;;;;;;;;5016195;28;20033;-61
2022/10/11 06:41:07;;;;;;;6.82;6.32;;;;;;;;;;5016177;28;20033;-62
2022/10/11 06:43:32;;;;;;;7.15;6.65;;;;;;;;;;5014532;28;20038;-62
2022/10/11 06:45:58;;;;;;;8.43;7.28;;;;;;;;;;5016172;28;20096;-62
2022/10/11 06:48:23;;;;;;;6.47;6.05;;;;;;;;;;5015726;28;20033;-61
2022/10/11 06:50:48;;;;;;;6.95;6.45;;;;;;;;;;5013996;28;20520;-62
2022/10/11 06:53:14;;;;;;;7.03;6.53;;;;;;;;;;5013431;28;20551;-62
2022/10/11 06:55:39;;;;;;;7.38;6.88;;;;;;;;;;5014443;28;20034;-63
2022/10/11 06:58:05;;;;;;;7.90;7.20;;;;;;;;;;5016946;28;20041;-62
2022/10/11 07:00:30;;;;;;;7.32;6.82;;;;;;;;;;5019618;28;20379;-61
2022/10/11 07:02:55;;;;;;;6.90;6.40;;;;;;;;;;5013100;28;20038;-61
2022/10/11 07:05:21;;;;;;;7.25;6.75;;;;;;;;;;5015970;28;20451;-61
2022/10/11 07:07:46;;;;;;;7.55;6.88;;;;;;;;;;5016971;28;20495;-62
2022/10/11 07:10:12;;;;;;;7.82;7.18;;;;;;;;;;5015208;28;20041;-63
2022/10/11 07:12:37;;;;;;;7.40;6.90;;;;;;;;;;5015784;28;20065;-63
2022/10/11 07:15:03;;;;;;;7.80;7.30;;;;;;;;;;5013600;28;20486;-61
2022/10/11 07:17:28;;;;;;;7.50;7.00;;;;;;;;;;5014607;28;20028;-62
2022/10/11 07:19:54;;;;;;;7.97;7.30;;;;;;;;;;5015199;28;20021;-62
2022/10/11 07:22:19;;;;;;;8.20;7.18;;;;;;;;;;5011920;28;20214;-62
2022/10/11 07:24:45;;;;;;;8.60;8.00;;;;;;;;;;5013406;28;20053;-62
2022/10/11 07:27:10;;;;;;;7.50;7.00;;;;;;;;;;5016753;28;20217;-62
2022/10/11 07:29:35;;;;;;;7.85;7.35;;;;;;;;;;5015702;28;20123;-62
2022/10/11 07:32:01;;;;;;;8.80;8.20;;;;;;;;;;5015723;28;20030;-62
2022/10/11 07:34:26;;;;;;;8.65;8.05;;;;;;;;;;5016418;28;20112;-62
2022/10/11 07:36:51;;;;;;;8.93;8.32;;;;;;;;;;5012634;28;20043;-64
2022/10/11 07:39:17;;;;;;;8.23;7.72;;;;;;;;;;5014901;28;20073;-63
2022/10/11 07:41:42;;;;;;;8.32;7.82;;;;;;;;;;5015069;28;20113;-64
2022/10/11 07:44:08;;;;;;;7.93;7.43;;;;;;;;;;5015766;28;20175;-64
2022/10/11 07:46:33;;;;;;;7.70;7.20;;;;;;;;;;5015000;28;20026;-63
2022/10/11 07:48:58;;;;;;;8.05;7.55;;;;;;;;;;5015300;28;20041;-63
2022/10/11 07:51:24;;;;;;;8.68;7.97;;;;;;;;;;5016290;28;20112;-63
2022/10/11 07:53:55;;;;;;;7.63;7.13;;;;;;;;;;5014835;28;20046;-63
2022/10/11 07:56:25;;;;;;;7.97;7.47;;;;;;;;;;5018291;28;20475;-63
2022/10/11 07:58:53;;;;;;;7.63;7.13;;;;;;;;;;5019473;28;20034;-63
2022/10/11 08:01:19;;;;;;;7.03;6.53;;;;;;;;;;5014508;28;20052;-59
2022/10/11 08:03:45;;;;;;;6.90;6.40;;;;;;;;;;5017328;28;20036;-59
2022/10/11 08:06:13;;;;;;;6.20;5.80;;;;;;;;;;5016498;28;20436;-60
2022/10/11 08:08:39;;;;;;;7.32;6.82;;;;;;;;;;5016137;28;20029;-59
2022/10/11 08:11:05;;;;;;;7.93;7.32;;;;;;;;;;5019451;28;20033;-61
2022/10/11 08:13:30;;;;;;;7.75;7.15;;;;;;;;;;5017173;28;20033;-60
2022/10/11 08:15:56;;;;;;;6.65;6.15;;;;;;;;;;5017119;28;20506;-62
2022/10/11 08:18:22;;;;;;;7.85;7.15;;;;;;;;;;5018424;28;20034;-62
2022/10/11 08:20:47;;;;;;;6.90;6.40;;;;;;;;;;5019290;28;20029;-62
2022/10/11 08:23:14;;;;;;;6.35;5.90;;;;;;;;;;5019715;28;20099;-62
2022/10/11 08:25:42;;;;;;;6.88;6.28;;;;;;;;;;5018516;28;20451;-62
2022/10/11 08:28:09;;;;;;;7.47;6.97;;;;;;;;;;5016338;28;20038;-61
2022/10/11 08:30:35;;;;;;;6.88;6.22;;;;;;;;;;5018321;28;20146;-61
2022/10/11 08:33:00;;;;;;;6.85;6.13;;;;;;;;;;5019758;28;20676;-61
2022/10/11 08:35:26;;;;;;;7.55;7.05;;;;;;;;;;5018243;28;20030;-62
2022/10/11 08:37:51;;;;;;;6.53;5.95;;;;;;;;;;5019309;28;20483;-61
2022/10/11 08:40:20;;;;;;;7.35;6.70;;;;;;;;;;5017598;28;20102;-61
2022/10/11 08:42:59;;;;;;;6.18;5.78;;;;;;;;;;5019394;28;20064;-61
2022/10/11 08:45:45;;;;;;;6.28;5.88;;;;;;;;;;5017287;28;20038;-61
2022/10/11 08:48:18;;;;;;;5.97;5.57;;;;;;;;;;5020089;28;20042;-61
2022/10/11 08:50:48;;;;;;;6.20;5.70;;;;;;;;;;5019295;28;20025;-61
2022/10/11 08:53:43;;;;;;;5.53;5.13;;;;;;;;;;5017143;28;20052;-61
2022/10/11 08:56:12;;;;;;;7.50;6.85;;;;;;;;;;5017657;28;20037;-61
2022/10/11 08:59:00;;;;;;;7.35;6.75;;;;;;;;;;5014261;28;20445;-61
2022/10/11 09:01:27;;;;;;;6.57;6.07;;;;;;;;;;5017866;28;20049;-60
2022/10/11 09:03:53;;;;;;;6.90;6.40;;;;;;;;;;5021029;28;20045;-62
2022/10/11 09:06:38;;;;;;;6.05;5.65;;;;;;;;;;5016837;28;20026;-62
2022/10/11 09:09:49;;;;;;;6.20;5.80;;;;;;;;;;5020886;28;20021;-63
2022/10/11 09:12:59;;;;;;;7.47;6.97;;;;;;;;;;5013940;28;20384;-62
2022/10/11 09:15:37;;;;;;;7.00;6.50;;;;;;;;;;4967127;28;20038;-62
2022/10/11 09:18:20;;;;;;;7.80;7.30;;;;;;;;;;4965426;28;20061;-61
2022/10/11 09:20:58;;;;;;;8.32;7.38;;;;;;;;;;5004807;28;20554;-62
2022/10/11 09:23:36;;;;;;;6.88;6.38;;;;;;;;;;5018170;28;20045;-61
2022/10/11 09:26:13;;;;;;;6.80;6.30;;;;;;;;;;5022502;28;20029;-62
2022/10/11 09:29:02;;;;;;;9.55;6.30;;;;;;;;;;5020247;28;20030;-61
2022/10/11 09:31:29;;;;;;;7.05;6.55;;;;;;;;;;5019627;28;20060;-62
2022/10/11 09:33:54;;;;;;;7.82;7.22;;;;;;;;;;5018808;28;20410;-62
2022/10/11 09:36:40;;;;;;;8.95;8.38;;;;;;;;;;5021496;28;20022;-62
2022/10/11 09:39:05;;;;;;;9.77;9.18;;;;;;;;;;5019020;28;20034;-61
2022/10/11 09:41:58;;;;;;;9.85;9.15;;;;;;;;;;5017509;28;20033;-62
2022/10/11 09:44:27;;;;;;;13.93;13.13;;;;;;;;;;5017692;28;20606;-61
2022/10/11 09:46:54;;;;;;;15.73;14.82;;;;;;;;;;5049186;28;20467;-61
2022/10/11 09:49:23;;;;;;;11.50;10.80;;;;;;;;;;5016044;28;20073;-61
2022/10/11 09:51:53;;;;;;;15.57;14.40;;;;;;;;;;5016954;28;20215;-60
2022/10/11 09:54:26;;;;;;;15.25;14.38;;;;;;;;;;5019871;28;20028;-61
2022/10/11 09:56:52;;;;;;;15.30;14.43;;;;;;;;;;5015369;28;20029;-61
2022/10/11 09:59:27;;;;;;;11.23;10.52;;;;;;;;;;5017867;28;20042;-61
2022/10/11 10:02:16;;;;;;;14.00;13.20;;;;;;;;;;5016719;28;20029;-61
2022/10/11 10:05:00;;;;;;;13.55;12.75;;;;;;;;;;5013291;28;20045;-61
2022/10/11 10:07:27;;;;;;;15.15;14.25;;;;;;;;;;5017018;28;20064;-61
2022/10/11 10:09:53;;;;;;;15.93;14.82;;;;;;;;;;5018785;28;20048;-61
2022/10/11 10:12:29;;;;;;;12.52;11.73;;;;;;;;;;5016656;28;20030;-61
2022/10/11 10:15:07;;;;;;;17.65;16.27;;;;;;;;;;5015704;28;20040;-61
2022/10/11 10:17:34;;;;;;;16.15;15.25;;;;;;;;;;5017921;28;20037;-60
2022/10/11 10:20:00;;;;;;;15.00;14.00;;;;;;;;;;5036667;28;20115;-60
2022/10/11 10:22:32;;;;;;;14.23;13.38;;;;;;;;;;5017372;28;20036;-60
2022/10/11 10:25:00;;;;;;;14.48;13.68;;;;;;;;;;5016802;28;20483;-60
2022/10/11 10:27:29;;;;;;;14.48;13.60;;;;;;;;;;5013258;28;20033;-60
2022/10/11 10:30:06;;;;;;;14.10;13.20;;;;;;;;;;5014821;28;20034;-59
2022/10/11 10:32:44;;;;;;;14.25;13.45;;;;;;;;;;5023470;28;20036;-63
2022/10/11 10:35:34;;;;;;;15.68;14.50;;;;;;;;;;5016616;28;20296;-61
2022/10/11 10:38:31;;;;;;;15.10;14.20;;;;;;;;;;5046905;28;20554;-61
2022/10/11 10:41:00;;;;;;;12.35;11.65;;;;;;;;;;5012472;28;20637;-62
2022/10/11 10:43:31;;;;;;;13.75;12.95;;;;;;;;;;5017183;28;20426;-61
2022/10/11 10:46:16;;;;;;;14.50;13.70;;;;;;;;;;5015031;28;20065;-61
2022/10/11 10:48:51;;;;;;;12.27;11.57;;;;;;;;;;5049957;28;21057;-61
2022/10/11 10:51:30;;;;;;;15.50;14.60;;;;;;;;;;5016897;28;20091;-61
2022/10/11 10:54:13;;;;;;;17.20;16.25;;;;;;;;;;5015248;28;20467;-63
2022/10/11 10:56:47;;;;;;;14.50;13.60;;;;;;;;;;5013904;28;20045;-63
2022/10/11 10:59:30;;;;;;;11.50;10.80;;;;;;;;;;5013505;28;20026;-62
2022/10/11 11:02:07;;;;;;;14.52;11.23;;;;;;;;;;5018622;28;20048;-62
2022/10/11 11:04:34;;;;;;;11.90;11.20;;;;;;;;;;5018263;28;20619;-62
2022/10/11 11:07:24;;;;;;;11.30;10.60;;;;;;;;;;5015936;28;20034;-62
2022/10/11 11:10:19;;;;;;;12.52;11.82;;;;;;;;;;5013621;28;20033;-62
2022/10/11 11:13:16;;;;;;;12.52;11.63;;;;;;;;;;5017625;28;20029;-63
2022/10/11 11:16:05;;;;;;;11.73;11.02;;;;;;;;;;5018167;28;20428;-63
2022/10/11 11:18:52;;;;;;;12.82;12.02;;;;;;;;;;5016581;28;20160;-62
2022/10/11 11:21:36;;;;;;;16.50;11.07;;;;;;;;;;5014938;28;20434;-63
2022/10/11 11:24:21;;;;;;;13.32;12.52;;;;;;;;;;5013594;28;20030;-63
2022/10/11 11:27:03;;;;;;;11.85;11.15;;;;;;;;;;5017088;28;20061;-64
2022/10/11 11:29:42;;;;;;;12.48;11.77;;;;;;;;;;5016850;28;20640;-64
2022/10/11 11:32:17;;;;;;;12.57;11.88;;;;;;;;;;5016110;28;20033;-63
2022/10/11 11:34:49;;;;;;;12.05;11.35;;;;;;;;;;5013027;28;20037;-62
2022/10/11 11:37:30;;;;;;;12.68;11.88;;;;;;;;;;5014756;28;20037;-63
2022/10/11 11:40:01;;;;;;;14.00;12.90;;;;;;;;;;5016044;28;20035;-63
2022/10/11 11:42:38;;;;;;;11.60;10.85;;;;;;;;;;5048562;28;20030;-63
2022/10/11 11:45:32;;;;;;;14.00;13.18;;;;;;;;;;5013733;28;20044;-63
2022/10/11 11:48:11;;;;;;;14.60;13.70;;;;;;;;;;5017451;28;20056;-63
2022/10/11 11:50:42;;;;;;;13.77;12.77;;;;;;;;;;5018334;28;20040;-64
2022/10/11 11:53:23;;;;;;;15.43;14.32;;;;;;;;;;5018862;28;20042;-64
2022/10/11 11:56:06;;;;;;;14.73;13.82;;;;;;;;;;5023312;28;20035;-63
2022/10/11 11:58:31;;;;;;;14.80;13.75;;;;;;;;;;5050436;28;20030;-63
2022/10/11 12:01:20;;;;;;;15.25;14.35;;;;;;;;;;5023988;28;20048;-62
2022/10/11 12:03:50;;;;;;;15.52;14.52;;;;;;;;;;5020688;28;20033;-63
2022/10/11 12:06:21;;;;;;;14.27;13.38;;;;;;;;;;5017935;28;20086;-63
2022/10/11 12:08:48;;;;;;;;;;;;;;;;;;5019816;28;20041;-63
2022/10/11 12:11:24;;;;;;;13.85;13.05;;;;;;;;;;5022309;28;19932;-63
2022/10/11 12:13:51;;;;;;;13.63;12.82;;;;;;;;;;5020106;28;20026;-63
2022/10/11 12:16:18;;;;;;;11.98;11.27;;;;;;;;;;5021252;28;20109;-62
2022/10/11 12:18:55;;;;;;;14.55;13.70;;;;;;;;;;5016471;28;20064;-62
2022/10/11 12:21:34;;;;;;;14.93;14.02;;;;;;;;;;5020627;28;20033;-62
2022/10/11 12:24:08;;;;;;;13.48;12.68;;;;;;;;;;5019162;28;20091;-62
2022/10/11 12:26:36;;;;;;;13.30;12.50;;;;;;;;;;5048553;28;20120;-63
2022/10/11 12:29:17;;;;;;;15.05;13.80;;;;;;;;;;5048480;28;20578;-62
2022/10/11 12:32:29;;;;;;;13.88;13.07;;;;;;;;;;5019117;28;20029;-63
2022/10/11 12:35:38;;;;;;;13.45;12.65;;;;;;;;;;5016740;28;20034;-63
2022/10/11 12:38:27;;;;;;;12.45;11.75;;;;;;;;;;4967204;28;20495;-63
2022/10/11 12:41:24;;;;;;;13.30;12.50;;;;;;;;;;4965724;28;20070;-63
2022/10/11 12:43:50;;;;;;;13.57;12.77;;;;;;;;;;5012087;28;20037;-63
2022/10/11 12:46:28;;;;;;;14.43;13.57;;;;;;;;;;5017849;28;20116;-60
2022/10/11 12:49:14;;;;;;;13.80;13.00;;;;;;;;;;5018839;28;20029;-60
2022/10/11 12:52:01;;;;;;;13.45;12.65;;;;;;;;;;5013747;28;20099;-61
2022/10/11 12:55:04;;;;;;;12.90;12.18;;;;;;;;;;5048398;28;20038;-60
2022/10/11 12:57:44;;;;;;;14.00;13.10;;;;;;;;;;5019214;28;20037;-60
2022/10/11 13:00:28;;;;;;;14.50;13.70;;;;;;;;;;5019697;28;20044;-61
2022/10/11 13:02:56;;;;;;;13.23;12.43;;;;;;;;;;5022696;28;20042;-60
2022/10/11 13:05:29;;;;;;;13.52;12.73;;;;;;;;;;5020280;28;20029;-60
2022/10/11 13:07:57;;;;;;;13.13;12.32;;;;;;;;;;5017229;28;20025;-61
2022/10/11 13:10:27;;;;;;;13.80;13.00;;;;;;;;;;5015549;28;20030;-64
2022/10/11 13:12:54;;;;;;;13.45;12.65;;;;;;;;;;5013601;28;20026;-64
2022/10/11 13:15:21;;;;;;;13.70;12.90;;;;;;;;;;5014860;28;20221;-64
2022/10/11 13:17:53;;;;;;;12.05;11.35;;;;;;;;;;5019157;28;20458;-63
2022/10/11 13:20:25;;;;;;;11.98;11.27;;;;;;;;;;5019839;28;20165;-64
2022/10/11 13:22:53;;;;;;;12.52;11.40;;;;;;;;;;5017034;28;20034;-63
2022/10/11 13:25:24;;;;;;;11.65;10.95;;;;;;;;;;5013124;28;20060;-63
2022/10/11 13:27:52;;;;;;;12.52;11.73;;;;;;;;;;5017897;28;20491;-64
2022/10/11 13:30:28;;;;;;;11.90;11.20;;;;;;;;;;5013332;28;20655;-63
2022/10/11 13:32:55;;;;;;;13.13;12.25;;;;;;;;;;5016137;28;20022;-64
2022/10/11 13:35:40;;;;;;;13.07;12.27;;;;;;;;;;5015700;28;20041;-64
2022/10/11 13:38:27;;;;;;;13.05;12.25;;;;;;;;;;5016078;28;20375;-63
2022/10/11 13:40:55;;;;;;;12.48;11.77;;;;;;;;;;5016025;28;20088;-63
2022/10/11 13:43:25;;;;;;;11.85;11.15;;;;;;;;;;5018528;28;20038;-63
2022/10/11 13:45:53;;;;;;;12.10;11.40;;;;;;;;;;5015362;28;20091;-63
2022/10/11 13:48:18;;;;;;;11.95;11.25;;;;;;;;;;5014601;28;20411;-64
2022/10/11 13:50:51;;;;;;;13.20;12.40;;;;;;;;;;5016824;28;20021;-63
2022/10/11 13:53:16;;;;;;;15.13;14.27;;;;;;;;;;5017341;28;20480;-65
2022/10/11 13:55:41;;;;;;;14.45;13.57;;;;;;;;;;5015046;28;20057;-63
2022/10/11 13:58:30;;;;;;;14.38;13.57;;;;;;;;;;5015437;28;20029;-64
2022/10/11 14:00:58;;;;;;;14.93;14.07;;;;;;;;;;5006609;28;20029;-63
2022/10/11 14:03:39;;;;;;;14.90;13.93;;;;;;;;;;5018857;28;20018;-64
2022/10/11 14:06:05;;;;;;;14.43;13.63;;;;;;;;;;5023745;28;20124;-63
2022/10/11 14:08:37;;;;;;;15.80;14.93;;;;;;;;;;5022394;28;20092;-63
2022/10/11 14:11:02;;;;;;;14.27;13.45;;;;;;;;;;5016306;28;20032;-65
2022/10/11 14:13:36;;;;;;;12.32;11.63;;;;;;;;;;5013118;28;20112;-64
2022/10/11 14:16:12;;;;;;;14.65;13.85;;;;;;;;;;5013892;28;20423;-65
2022/10/11 14:18:42;;;;;;;16.42;15.52;;;;;;;;;;5014511;28;20041;-64
2022/10/11 14:21:26;;;;;;;15.18;14.32;;;;;;;;;;5015191;28;20045;-63
2022/10/11 14:23:54;;;;;;;16.50;15.30;;;;;;;;;;5045809;28;20091;-64
2022/10/11 14:26:21;;;;;;;17.23;16.23;;;;;;;;;;5014743;28;20042;-63
2022/10/11 14:28:58;;;;;;;15.32;14.45;;;;;;;;;;5016073;28;20026;-64
2022/10/11 14:31:24;;;;;;;15.30;14.40;;;;;;;;;;5014686;28;20584;-64
2022/10/11 14:33:49;;;;;;;14.48;13.68;;;;;;;;;;5047324;28;20396;-65
2022/10/11 14:36:15;;;;;;;14.20;13.40;;;;;;;;;;5018002;28;20029;-64
2022/10/11 14:38:40;;;;;;;14.15;13.35;;;;;;;;;;5016871;28;20107;-64
2022/10/11 14:41:05;;;;;;;13.25;12.45;;;;;;;;;;5012758;28;20112;-64
2022/10/11 14:43:31;;;;;;;13.48;12.57;;;;;;;;;;5013784;28;20025;-63
2022/10/11 14:45:56;;;;;;;12.00;11.30;;;;;;;;;;5018274;28;20025;-64
2022/10/11 14:48:22;;;;;;;11.90;11.20;;;;;;;;;;5018698;28;20896;-65
2022/10/11 14:51:01;;;;;;;12.13;11.43;;;;;;;;;;5012759;28;20025;-64
2022/10/11 14:53:27;;;;;;;15.23;14.32;;;;;;;;;;5015653;28;20116;-64
2022/10/11 14:55:52;;;;;;;11.60;10.80;;;;;;;;;;5011835;28;20128;-64